Time;durP1;ratioP1;P1;durP2;ratioP2;P2;SDS_P1;SDS_P2;PMS_P1;PMS_P2;Temp;Humidity;BMP_temperature;BMP_pressure;BME280_temperature;BME280_humidity;BME280_pressure;Samples;Min_cycle;Max_cycle;Signal;HPM_P1;HPM_P2
2023/09/07 00:00:47;;;;;;;3.72;2.50;;;17.60;59.60;;;;;;5067575;28;20024;-60
2023/09/07 00:03:13;;;;;;;2.75;1.98;;;17.60;59.70;;;;;;5081605;28;20032;-61
2023/09/07 00:05:39;;;;;;;2.33;2.05;;;17.50;59.70;;;;;;5082757;28;21220;-61
2023/09/07 00:08:05;;;;;;;2.45;1.92;;;17.50;59.60;;;;;;5091376;28;20079;-61
2023/09/07 00:10:35;;;;;;;4.57;2.25;;;17.50;59.50;;;;;;5074163;28;20024;-63
2023/09/07 00:13:04;;;;;;;4.22;2.20;;;17.50;60.40;;;;;;5080472;28;20054;-60
2023/09/07 00:15:35;;;;;;;4.05;2.55;;;17.40;59.70;;;;;;5073162;28;20064;-61
2023/09/07 00:18:00;;;;;;;2.80;2.20;;;17.40;59.80;;;;;;5075004;28;20024;-61
2023/09/07 00:20:26;;;;;;;2.53;1.95;;;17.40;59.90;;;;;;5081113;28;20031;-60
2023/09/07 00:22:52;;;;;;;2.95;2.20;;;17.30;59.90;;;;;;5086893;28;20039;-60
2023/09/07 00:25:18;;;;;;;3.33;2.17;;;17.30;59.90;;;;;;5085081;28;20023;-61
2023/09/07 00:27:43;;;;;;;5.20;2.20;;;17.30;60.00;;;;;;5087751;28;20039;-60
2023/09/07 00:30:10;;;;;;;2.88;2.13;;;17.30;60.00;;;;;;5074727;28;20037;-60
2023/09/07 00:32:39;;;;;;;3.92;2.22;;;17.20;59.90;;;;;;5073293;28;20021;-61
2023/09/07 00:35:05;;;;;;;5.15;2.15;;;17.20;60.20;;;;;;5081667;28;20047;-60
2023/09/07 00:37:32;;;;;;;4.50;1.90;;;17.20;60.20;;;;;;5088752;28;20023;-60
2023/09/07 00:39:58;;;;;;;2.67;2.00;;;17.20;60.40;;;;;;5088279;28;20028;-60
2023/09/07 00:42:24;;;;;;;2.92;2.35;;;17.10;60.40;;;;;;5083704;28;20051;-61
2023/09/07 00:44:51;;;;;;;3.25;2.40;;;17.10;60.60;;;;;;5001038;28;20027;-64
2023/09/07 00:47:17;;;;;;;5.10;2.38;;;17.10;60.70;;;;;;5075176;28;21622;-60
2023/09/07 00:49:43;;;;;;;3.40;2.25;;;17.10;60.70;;;;;;5088713;28;20037;-62
2023/09/07 00:52:10;;;;;;;2.30;2.05;;;17.10;60.80;;;;;;5077430;28;20471;-61
2023/09/07 00:54:38;;;;;;;4.35;2.10;;;17.00;60.80;;;;;;5085492;28;20016;-60
2023/09/07 00:57:05;;;;;;;5.07;2.03;;;17.00;60.80;;;;;;5080328;28;20353;-61
2023/09/07 00:59:32;;;;;;;2.40;2.05;;;17.00;60.80;;;;;;5079616;28;20638;-60
2023/09/07 01:01:58;;;;;;;3.30;2.20;;;16.90;60.90;;;;;;5078646;28;20144;-62
2023/09/07 01:04:24;;;;;;;2.10;1.90;;;16.90;60.80;;;;;;5080622;28;20473;-61
2023/09/07 01:07:16;;;;;;;3.67;2.28;;;16.90;60.90;;;;;;5076582;28;20405;-61
2023/09/07 01:09:43;;;;;;;3.35;2.42;;;16.90;62.10;;;;;;5081789;28;20028;-60
2023/09/07 01:12:14;;;;;;;3.35;2.40;;;16.80;61.00;;;;;;5063299;28;20024;-60
2023/09/07 01:14:40;;;;;;;3.40;2.58;;;16.80;61.70;;;;;;5078359;28;20103;-62
2023/09/07 01:17:07;;;;;;;2.30;2.10;;;16.80;61.30;;;;;;5078530;28;20221;-61
2023/09/07 01:19:33;;;;;;;15.32;2.92;;;16.80;61.60;;;;;;5080442;28;20020;-60
2023/09/07 01:22:00;;;;;;;4.45;2.70;;;16.70;61.40;;;;;;5077421;28;20054;-60
2023/09/07 01:24:29;;;;;;;2.80;2.17;;;16.70;61.40;;;;;;5084506;28;20195;-60
2023/09/07 01:26:57;;;;;;;6.63;2.42;;;16.70;61.60;;;;;;5062422;28;20036;-60
2023/09/07 01:29:22;;;;;;;3.90;2.40;;;16.60;61.50;;;;;;5082424;28;20024;-60
2023/09/07 01:31:48;;;;;;;3.63;2.28;;;16.70;61.80;;;;;;5082550;28;20935;-60
2023/09/07 01:34:14;;;;;;;3.88;2.35;;;16.60;61.80;;;;;;5081200;28;20031;-60
2023/09/07 01:36:40;;;;;;;2.42;2.22;;;16.60;61.80;;;;;;5083897;28;20541;-60
2023/09/07 01:39:06;;;;;;;2.80;2.13;;;16.60;61.90;;;;;;5083892;28;20055;-60
2023/09/07 01:41:33;;;;;;;2.90;2.35;;;16.50;61.80;;;;;;5070619;28;20024;-61
2023/09/07 01:43:59;;;;;;;5.93;2.60;;;16.50;61.70;;;;;;5078302;28;20040;-60
2023/09/07 01:46:25;;;;;;;2.38;2.13;;;16.50;61.80;;;;;;4971971;28;20020;-61
2023/09/07 01:48:50;;;;;;;7.32;2.30;;;16.50;61.80;;;;;;5082549;28;20039;-60
2023/09/07 01:51:16;;;;;;;4.75;2.20;;;16.50;61.90;;;;;;5085244;28;20458;-60
2023/09/07 01:53:42;;;;;;;4.03;2.10;;;16.40;61.90;;;;;;5077343;28;20020;-61
2023/09/07 01:56:07;;;;;;;3.65;2.28;;;16.40;61.90;;;;;;5087987;28;20024;-60
2023/09/07 01:58:34;;;;;;;3.58;2.40;;;16.30;62.10;;;;;;5084188;28;20495;-60
2023/09/07 02:00:59;;;;;;;3.28;2.30;;;16.30;62.20;;;;;;5085326;28;20545;-61
2023/09/07 02:03:26;;;;;;;4.40;2.30;;;16.30;62.30;;;;;;5084054;28;20126;-61
2023/09/07 02:05:53;;;;;;;2.92;1.98;;;16.30;62.50;;;;;;5083016;28;20024;-61
2023/09/07 02:08:19;;;;;;;2.85;2.08;;;16.30;62.60;;;;;;5099830;28;20536;-60
2023/09/07 02:10:44;;;;;;;6.35;2.60;;;16.20;62.50;;;;;;5094799;28;20066;-61
2023/09/07 02:13:11;;;;;;;3.25;2.30;;;16.20;63.30;;;;;;5099490;28;20024;-61
2023/09/07 02:15:40;;;;;;;2.72;2.20;;;16.10;62.60;;;;;;5104277;28;20341;-61
2023/09/07 02:18:06;;;;;;;3.45;2.35;;;16.10;63.00;;;;;;5106462;27;20023;-60
2023/09/07 02:20:34;;;;;;;2.90;2.30;;;16.10;62.80;;;;;;5087303;27;20512;-60
2023/09/07 02:23:00;;;;;;;2.58;2.03;;;16.10;63.00;;;;;;5103881;28;20024;-60
2023/09/07 02:25:27;;;;;;;6.03;2.50;;;16.10;62.70;;;;;;5109139;28;20020;-60
2023/09/07 02:27:53;;;;;;;6.28;2.40;;;16.10;62.60;;;;;;5105377;28;20095;-60
2023/09/07 02:30:19;;;;;;;4.82;2.30;;;16.00;62.60;;;;;;5109336;27;20658;-59
2023/09/07 02:32:44;;;;;;;2.42;2.22;;;16.00;62.80;;;;;;5105433;28;20028;-60
2023/09/07 02:35:10;;;;;;;4.43;2.63;;;16.00;63.00;;;;;;5109163;28;20032;-61
2023/09/07 02:37:36;;;;;;;2.97;2.42;;;16.00;63.10;;;;;;5110980;28;20023;-61
2023/09/07 02:40:07;;;;;;;5.40;2.60;;;15.90;63.00;;;;;;5101901;28;20043;-60
2023/09/07 02:42:33;;;;;;;4.10;2.20;;;15.90;63.20;;;;;;5104309;28;20390;-60
2023/09/07 02:44:58;;;;;;;2.97;2.35;;;15.90;63.20;;;;;;5014712;28;20042;-60
2023/09/07 02:47:24;;;;;;;3.58;2.45;;;15.90;63.20;;;;;;5099588;28;20507;-61
2023/09/07 02:49:50;;;;;;;5.40;2.60;;;15.90;63.20;;;;;;5104362;28;20187;-60
2023/09/07 02:52:15;;;;;;;3.92;2.70;;;15.90;63.20;;;;;;5104550;28;20027;-61
2023/09/07 02:54:41;;;;;;;4.85;2.80;;;15.80;63.20;;;;;;5104885;28;20031;-60
2023/09/07 02:57:07;;;;;;;5.95;2.47;;;15.80;63.30;;;;;;5105371;27;20393;-61
2023/09/07 02:59:33;;;;;;;2.75;2.35;;;15.80;63.40;;;;;;5114005;27;20050;-59
2023/09/07 03:01:59;;;;;;;3.75;2.35;;;15.80;63.50;;;;;;5115545;27;20026;-61
2023/09/07 03:04:24;;;;;;;8.32;2.47;;;15.80;63.50;;;;;;5096119;27;20434;-60
2023/09/07 03:06:50;;;;;;;3.17;2.63;;;15.80;63.50;;;;;;5109532;27;20063;-61
2023/09/07 03:09:16;;;;;;;4.18;2.60;;;15.80;63.50;;;;;;5109815;27;20038;-63
2023/09/07 03:11:41;;;;;;;5.57;2.50;;;15.80;63.50;;;;;;5108947;27;20112;-61
2023/09/07 03:14:07;;;;;;;3.05;2.28;;;15.70;63.50;;;;;;5110910;27;20054;-60
2023/09/07 03:16:33;;;;;;;3.10;2.50;;;15.70;63.60;;;;;;5111967;27;20143;-61
2023/09/07 03:18:58;;;;;;;3.47;2.20;;;15.70;63.60;;;;;;5112716;27;20035;-62
2023/09/07 03:21:29;;;;;;;2.50;2.30;;;15.70;63.60;;;;;;5115071;27;20031;-60
2023/09/07 03:23:56;;;;;;;6.40;2.50;;;15.70;63.60;;;;;;5107959;27;20036;-62
2023/09/07 03:26:21;;;;;;;3.05;2.20;;;15.60;63.60;;;;;;5108738;27;20486;-61
2023/09/07 03:28:47;;;;;;;2.83;2.53;;;15.60;63.60;;;;;;5109230;27;20038;-60
2023/09/07 03:31:13;;;;;;;3.58;2.55;;;15.60;63.70;;;;;;5111360;27;20020;-61
2023/09/07 03:33:38;;;;;;;3.20;2.45;;;15.60;63.70;;;;;;5107689;27;20551;-61
2023/09/07 03:36:04;;;;;;;2.45;2.17;;;15.60;63.90;;;;;;5108527;27;20023;-60
2023/09/07 03:38:30;;;;;;;3.25;2.53;;;15.60;63.90;;;;;;5106820;28;20032;-60
2023/09/07 03:40:55;;;;;;;6.00;2.05;;;15.50;63.80;;;;;;5119185;27;20024;-61
2023/09/07 03:43:21;;;;;;;3.92;2.42;;;15.50;64.00;;;;;;5105259;28;20031;-60
2023/09/07 03:45:47;;;;;;;3.88;2.40;;;15.50;64.00;;;;;;5105233;27;20024;-60
2023/09/07 03:48:12;;;;;;;4.70;2.78;;;15.50;64.00;;;;;;5110075;27;20046;-61
2023/09/07 03:50:38;;;;;;;5.00;2.50;;;15.50;64.10;;;;;;5107449;27;20027;-60
2023/09/07 03:53:04;;;;;;;7.25;2.53;;;15.40;64.20;;;;;;5098064;27;20032;-61
2023/09/07 03:55:29;;;;;;;4.28;2.42;;;15.40;64.40;;;;;;5110883;27;20054;-61
2023/09/07 03:57:55;;;;;;;5.22;2.78;;;15.40;64.40;;;;;;5112343;27;20042;-61
2023/09/07 04:00:21;;;;;;;9.23;2.75;;;15.40;64.40;;;;;;5105449;28;21174;-60
2023/09/07 04:02:47;;;;;;;4.15;3.00;;;15.30;64.50;;;;;;5105638;27;20023;-60
2023/09/07 04:05:12;;;;;;;3.83;2.67;;;15.40;64.60;;;;;;5081357;28;20355;-61
2023/09/07 04:07:38;;;;;;;3.42;2.72;;;15.30;64.50;;;;;;5082877;28;20048;-60
2023/09/07 04:10:05;;;;;;;3.20;2.65;;;15.30;64.60;;;;;;5094761;28;20047;-61
2023/09/07 04:12:31;;;;;;;4.35;2.80;;;15.30;64.50;;;;;;5081029;28;20038;-60
2023/09/07 04:14:57;;;;;;;4.13;2.22;;;15.30;64.50;;;;;;5075173;28;20028;-60
2023/09/07 04:17:22;;;;;;;3.47;2.80;;;15.20;64.60;;;;;;5089301;28;20036;-60
2023/09/07 04:19:48;;;;;;;3.95;2.78;;;15.30;64.70;;;;;;5081686;28;20028;-60
2023/09/07 04:22:14;;;;;;;6.55;3.05;;;15.20;64.70;;;;;;5084901;28;20028;-60
2023/09/07 04:24:39;;;;;;;5.45;2.80;;;15.20;64.90;;;;;;5090492;28;20111;-61
2023/09/07 04:27:05;;;;;;;4.68;2.90;;;15.20;64.90;;;;;;5086205;28;20028;-61
2023/09/07 04:29:31;;;;;;;5.03;3.17;;;15.20;64.90;;;;;;5082605;28;20040;-60
2023/09/07 04:31:56;;;;;;;8.32;3.03;;;15.20;64.90;;;;;;5087836;28;20028;-61
2023/09/07 04:34:23;;;;;;;6.22;3.53;;;15.20;65.00;;;;;;5081705;28;20020;-61
2023/09/07 04:36:48;;;;;;;5.25;3.33;;;15.10;65.00;;;;;;5085927;28;20073;-60
2023/09/07 04:39:14;;;;;;;6.10;2.90;;;15.20;65.30;;;;;;5074205;28;20024;-59
2023/09/07 04:41:41;;;;;;;6.85;3.20;;;15.10;65.20;;;;;;5084825;28;20085;-61
2023/09/07 04:44:06;;;;;;;4.30;3.22;;;15.10;65.20;;;;;;5090725;28;20028;-61
2023/09/07 04:46:32;;;;;;;3.55;2.67;;;15.10;65.20;;;;;;4986807;28;20364;-60
2023/09/07 04:48:58;;;;;;;5.22;2.78;;;15.10;65.00;;;;;;5078313;28;20040;-60
2023/09/07 04:51:25;;;;;;;5.85;2.58;;;15.10;65.20;;;;;;5064285;28;20035;-60
2023/09/07 04:53:51;;;;;;;4.97;3.20;;;15.10;65.20;;;;;;5077995;28;20031;-60
2023/09/07 04:56:17;;;;;;;3.95;2.65;;;15.10;65.20;;;;;;5079652;28;20028;-62
2023/09/07 04:58:43;;;;;;;4.63;3.00;;;15.10;65.20;;;;;;5082209;28;20029;-60
2023/09/07 05:01:10;;;;;;;4.70;2.88;;;15.00;65.10;;;;;;5059467;28;20500;-61
2023/09/07 05:03:37;;;;;;;5.72;2.88;;;15.00;65.30;;;;;;5077089;28;20031;-61
2023/09/07 05:06:04;;;;;;;5.25;2.67;;;15.00;65.30;;;;;;5063803;28;20032;-60
2023/09/07 05:08:30;;;;;;;7.80;2.83;;;15.00;65.50;;;;;;5101103;27;20050;-61
2023/09/07 05:10:57;;;;;;;4.82;3.05;;;15.00;65.50;;;;;;5105774;27;20028;-61
2023/09/07 05:13:24;;;;;;;6.68;3.00;;;15.00;65.70;;;;;;5099887;27;20091;-60
2023/09/07 05:15:51;;;;;;;4.47;3.33;;;15.00;65.90;;;;;;5104627;27;20027;-60
2023/09/07 05:18:17;;;;;;;4.38;3.10;;;15.00;65.90;;;;;;5102033;27;20330;-60
2023/09/07 05:20:44;;;;;;;8.50;2.78;;;15.00;66.00;;;;;;5104362;27;20032;-60
2023/09/07 05:23:12;;;;;;;4.40;3.10;;;15.10;66.10;;;;;;5102171;27;20481;-60
2023/09/07 05:25:54;;;;;;;6.03;3.20;;;15.10;66.20;;;;;;5096325;28;20046;-60
2023/09/07 05:28:22;;;;;;;4.40;2.88;;;15.10;66.90;;;;;;5104947;28;20427;-61
2023/09/07 05:30:48;;;;;;;11.93;2.90;;;15.20;66.20;;;;;;5102278;27;20028;-60
2023/09/07 05:33:15;;;;;;;5.82;2.78;;;15.20;66.10;;;;;;5108354;27;20032;-61
2023/09/07 05:35:45;;;;;;;4.78;2.95;;;15.30;66.10;;;;;;5105130;27;20031;-61
2023/09/07 05:38:11;;;;;;;5.75;3.33;;;15.30;66.00;;;;;;5087046;28;20027;-61
2023/09/07 05:40:38;;;;;;;7.18;3.63;;;15.40;66.20;;;;;;5101096;28;20470;-61
2023/09/07 05:43:04;;;;;;;6.38;3.45;;;15.50;66.40;;;;;;5112242;27;20023;-62
2023/09/07 05:45:35;;;;;;;9.55;3.58;;;15.50;66.40;;;;;;4992832;27;20492;-60
2023/09/07 05:48:00;;;;;;;20.98;4.00;;;15.60;66.70;;;;;;5105317;27;20038;-60
2023/09/07 05:50:26;;;;;;;7.63;3.63;;;15.80;66.90;;;;;;5102626;28;20016;-61
2023/09/07 05:52:52;;;;;;;9.63;3.47;;;15.80;66.90;;;;;;5097537;28;20027;-60
2023/09/07 05:55:17;;;;;;;10.10;3.90;;;16.00;66.90;;;;;;5106157;27;20024;-61
2023/09/07 05:57:43;;;;;;;16.73;3.85;;;16.10;66.80;;;;;;5110663;27;20023;-61
2023/09/07 06:00:09;;;;;;;17.55;4.32;;;16.20;66.80;;;;;;5103566;27;20027;-60
2023/09/07 06:02:35;;;;;;;14.82;3.92;;;16.20;66.80;;;;;;5099263;28;20309;-61
2023/09/07 06:05:01;;;;;;;16.08;3.60;;;16.40;66.80;;;;;;5099161;27;20028;-61
2023/09/07 06:07:27;;;;;;;7.97;3.80;;;16.50;66.80;;;;;;5071331;28;20056;-62
2023/09/07 06:09:53;;;;;;;9.85;3.50;;;16.60;66.80;;;;;;5077967;28;20509;-61
2023/09/07 06:12:19;;;;;;;11.88;4.15;;;16.70;66.80;;;;;;5064678;28;20028;-61
2023/09/07 06:14:46;;;;;;;12.25;3.40;;;16.90;66.80;;;;;;5085675;28;20045;-60
2023/09/07 06:17:12;;;;;;;7.28;3.67;;;17.00;66.80;;;;;;5080856;28;20032;-60
2023/09/07 06:19:37;;;;;;;14.38;4.05;;;17.10;66.90;;;;;;5083500;28;20034;-60
2023/09/07 06:22:04;;;;;;;12.73;3.55;;;17.20;66.60;;;;;;5080610;28;20032;-60
2023/09/07 06:24:29;;;;;;;10.70;3.70;;;17.40;66.60;;;;;;5083219;28;20539;-61
2023/09/07 06:26:55;;;;;;;16.27;3.60;;;17.50;66.60;;;;;;5082573;28;20035;-61
2023/09/07 06:29:20;;;;;;;11.15;3.83;;;17.60;66.50;;;;;;5081186;28;20503;-60
2023/09/07 06:31:49;;;;;;;10.85;3.80;;;17.70;66.40;;;;;;5081905;28;20024;-61
2023/09/07 06:34:15;;;;;;;9.25;3.50;;;17.90;66.40;;;;;;5077853;28;20356;-63
2023/09/07 06:36:40;;;;;;;4.95;3.80;;;18.00;66.40;;;;;;5087724;28;20039;-60
2023/09/07 06:39:06;;;;;;;9.75;4.20;;;18.20;66.50;;;;;;5081304;28;20020;-60
2023/09/07 06:41:32;;;;;;;8.77;3.70;;;18.30;66.70;;;;;;5083302;28;20023;-61
2023/09/07 06:43:57;;;;;;;13.27;3.58;;;18.50;66.50;;;;;;5077770;28;20027;-61
2023/09/07 06:46:23;;;;;;;4.20;3.22;;;18.60;66.30;;;;;;5016286;28;20030;-60
2023/09/07 06:48:49;;;;;;;4.95;3.22;;;18.80;65.90;;;;;;5082689;28;20118;-60
2023/09/07 06:51:14;;;;;;;7.88;3.30;;;18.90;65.40;;;;;;5084920;28;20032;-61
2023/09/07 06:53:41;;;;;;;5.35;3.30;;;19.10;65.10;;;;;;5078759;28;20043;-61
2023/09/07 06:56:07;;;;;;;6.05;3.60;;;19.30;65.10;;;;;;5080897;28;20036;-61
2023/09/07 06:58:34;;;;;;;5.95;3.30;;;19.40;64.80;;;;;;5083269;28;20100;-61
2023/09/07 07:01:00;;;;;;;5.18;3.30;;;19.60;64.70;;;;;;5079245;28;20021;-63
2023/09/07 07:03:30;;;;;;;3.70;3.10;;;19.80;64.30;;;;;;5079221;28;20562;-60
2023/09/07 07:05:56;;;;;;;10.38;2.97;;;19.90;63.90;;;;;;5078181;28;20028;-61
2023/09/07 07:08:23;;;;;;;4.82;3.45;;;20.10;63.60;;;;;;5082244;28;20044;-61
2023/09/07 07:10:49;;;;;;;6.35;3.60;;;20.30;63.50;;;;;;5098502;28;20059;-60
2023/09/07 07:13:14;;;;;;;4.70;2.97;;;20.40;63.10;;;;;;5107284;28;20111;-62
2023/09/07 07:15:41;;;;;;;6.95;3.20;;;20.60;63.00;;;;;;5100125;28;20489;-61
2023/09/07 07:18:10;;;;;;;4.78;2.75;;;20.70;62.50;;;;;;5103646;28;20047;-61
2023/09/07 07:20:41;;;;;;;9.13;3.30;;;20.90;61.80;;;;;;5101902;28;20027;-61
2023/09/07 07:23:07;;;;;;;6.43;3.25;;;21.00;61.80;;;;;;5084730;28;20393;-63
2023/09/07 07:25:33;;;;;;;4.25;3.47;;;21.20;61.30;;;;;;5101421;28;20028;-61
2023/09/07 07:28:00;;;;;;;3.22;2.88;;;21.30;60.70;;;;;;5103879;28;20042;-62
2023/09/07 07:30:29;;;;;;;5.72;2.85;;;21.50;61.10;;;;;;5090784;28;20118;-61
2023/09/07 07:32:56;;;;;;;4.63;3.17;;;21.60;60.00;;;;;;5110100;28;20084;-62
2023/09/07 07:35:22;;;;;;;5.55;3.15;;;21.70;59.50;;;;;;5077243;28;20031;-62
2023/09/07 07:37:49;;;;;;;5.00;3.35;;;21.90;59.30;;;;;;5102271;28;20042;-61
2023/09/07 07:40:15;;;;;;;4.28;3.20;;;22.00;59.20;;;;;;5094112;28;20387;-62
2023/09/07 07:42:41;;;;;;;3.10;2.80;;;22.10;58.90;;;;;;5086734;28;20314;-61
2023/09/07 07:45:08;;;;;;;4.45;3.33;;;22.20;58.60;;;;;;5015650;28;20032;-60
2023/09/07 07:47:33;;;;;;;4.43;3.08;;;22.30;58.30;;;;;;5102376;28;20028;-61
2023/09/07 07:49:59;;;;;;;3.13;2.72;;;22.40;58.30;;;;;;5102666;27;20039;-61
2023/09/07 07:52:25;;;;;;;3.47;2.85;;;22.50;58.10;;;;;;5116116;27;20028;-62
2023/09/07 07:54:50;;;;;;;5.20;2.90;;;22.70;58.00;;;;;;5104364;27;20382;-61
2023/09/07 07:57:16;;;;;;;3.38;2.70;;;22.80;57.50;;;;;;5085632;28;20023;-61
2023/09/07 07:59:43;;;;;;;4.32;3.25;;;22.90;57.20;;;;;;5087791;28;20032;-62
2023/09/07 08:02:09;;;;;;;4.07;2.80;;;23.00;57.10;;;;;;5108322;27;20035;-62
2023/09/07 08:04:35;;;;;;;5.43;2.60;;;23.10;57.10;;;;;;5103762;27;20024;-61
2023/09/07 08:07:04;;;;;;;6.75;3.22;;;23.20;56.90;;;;;;5103141;27;20508;-62
2023/09/07 08:09:31;;;;;;;5.13;3.30;;;23.40;56.60;;;;;;5078230;28;20533;-61
2023/09/07 08:11:57;;;;;;;4.45;2.95;;;23.50;56.40;;;;;;5064320;28;20507;-62
2023/09/07 08:14:24;;;;;;;4.72;3.22;;;23.60;56.30;;;;;;5088349;28;20073;-61
2023/09/07 08:16:50;;;;;;;4.07;2.80;;;23.70;56.00;;;;;;5065806;28;20063;-62
2023/09/07 08:19:16;;;;;;;3.97;2.53;;;23.80;55.90;;;;;;5082327;28;20032;-62
2023/09/07 08:21:42;;;;;;;6.03;2.90;;;23.90;55.80;;;;;;5082077;28;20096;-61
2023/09/07 08:24:08;;;;;;;7.07;3.60;;;24.00;55.70;;;;;;5088979;28;20445;-61
2023/09/07 08:26:36;;;;;;;4.25;2.95;;;24.10;55.40;;;;;;5089114;28;20038;-62
2023/09/07 08:29:05;;;;;;;9.20;3.30;;;24.20;55.20;;;;;;5082014;28;20123;-61
2023/09/07 08:31:40;;;;;;;7.78;3.17;;;24.30;54.90;;;;;;5084603;28;20026;-61
2023/09/07 08:34:11;;;;;;;3.45;3.15;;;24.40;54.20;;;;;;5057676;28;20024;-61
2023/09/07 08:36:37;;;;;;;5.63;3.00;;;24.50;54.10;;;;;;5084872;28;20414;-62
2023/09/07 08:39:07;;;;;;;6.18;2.95;;;24.60;54.50;;;;;;5082949;28;20028;-63
2023/09/07 08:41:44;;;;;;;5.93;3.38;;;24.70;54.30;;;;;;5084293;28;20154;-63
2023/09/07 08:44:20;;;;;;;5.13;3.33;;;24.80;53.30;;;;;;5081170;28;20112;-62
2023/09/07 08:46:49;;;;;;;3.10;2.63;;;24.90;53.40;;;;;;5087677;28;20024;-61
2023/09/07 08:49:19;;;;;;;4.65;3.40;;;25.00;54.30;;;;;;5084290;28;20043;-61
2023/09/07 08:51:45;;;;;;;4.13;2.72;;;25.10;53.50;;;;;;5089150;28;20028;-61
2023/09/07 08:54:12;;;;;;;4.72;3.58;;;25.20;53.60;;;;;;5087162;28;20051;-62
2023/09/07 08:56:38;;;;;;;8.70;3.30;;;25.30;53.30;;;;;;5089644;28;20027;-61
2023/09/07 08:59:04;;;;;;;7.10;3.63;;;25.30;53.10;;;;;;5093415;28;20015;-60
2023/09/07 09:01:33;;;;;;;6.05;3.38;;;25.40;53.00;;;;;;5091517;28;20024;-62
2023/09/07 09:03:59;;;;;;;3.35;2.80;;;25.50;52.90;;;;;;5088339;28;20024;-63
2023/09/07 09:06:25;;;;;;;5.28;2.95;;;25.60;53.00;;;;;;5090651;28;20375;-63
2023/09/07 09:08:55;;;;;;;3.67;3.10;;;25.60;52.70;;;;;;5105176;27;20135;-63
2023/09/07 09:11:22;;;;;;;4.82;2.97;;;25.70;52.70;;;;;;5110997;27;20035;-62
2023/09/07 09:13:50;;;;;;;3.63;3.08;;;25.80;53.00;;;;;;5108135;27;20016;-62
2023/09/07 09:16:16;;;;;;;5.30;3.30;;;25.80;53.00;;;;;;5103745;27;20016;-61
2023/09/07 09:18:52;;;;;;;3.88;3.20;;;26.00;52.50;;;;;;5114456;27;20016;-61
2023/09/07 09:21:21;;;;;;;6.13;3.60;;;26.10;51.90;;;;;;5110086;27;20693;-62
2023/09/07 09:23:52;;;;;;;5.97;3.08;;;26.20;52.20;;;;;;5101267;27;20023;-62
2023/09/07 09:26:19;;;;;;;4.15;3.05;;;26.20;52.10;;;;;;5103311;27;20106;-62
2023/09/07 09:28:45;;;;;;;5.78;3.60;;;26.30;52.30;;;;;;5108679;27;20062;-61
2023/09/07 09:31:14;;;;;;;4.78;3.47;;;26.40;51.60;;;;;;5085220;28;20028;-63
2023/09/07 09:33:41;;;;;;;3.75;2.88;;;26.40;51.40;;;;;;5107379;27;20052;-63
2023/09/07 09:36:07;;;;;;;6.85;3.55;;;26.50;51.50;;;;;;5106018;27;20024;-62
2023/09/07 09:38:34;;;;;;;4.60;3.35;;;26.50;51.30;;;;;;5109690;27;20027;-62
2023/09/07 09:41:00;;;;;;;4.22;3.33;;;26.60;51.60;;;;;;5110422;27;20034;-62
2023/09/07 09:43:26;;;;;;;6.30;3.20;;;26.70;51.70;;;;;;5109554;27;20027;-62
2023/09/07 09:45:53;;;;;;;4.05;3.00;;;26.70;51.70;;;;;;5096494;28;20451;-62
2023/09/07 09:48:20;;;;;;;6.03;3.35;;;26.80;51.60;;;;;;5109377;27;20111;-62
2023/09/07 09:50:48;;;;;;;5.70;2.97;;;26.80;51.30;;;;;;5109681;27;20023;-62
2023/09/07 09:53:22;;;;;;;4.10;3.38;;;26.90;51.20;;;;;;5107094;27;20039;-62
2023/09/07 09:55:49;;;;;;;3.63;3.08;;;27.00;51.30;;;;;;5101731;27;20537;-62
2023/09/07 09:58:16;;;;;;;3.75;2.83;;;27.10;51.20;;;;;;5096762;27;20503;-63
2023/09/07 10:01:05;;;;;;;5.50;3.08;;;27.20;51.30;;;;;;5098965;28;20019;-61
2023/09/07 10:03:45;;;;;;;5.05;2.90;;;27.30;50.20;;;;;;5107536;27;20389;-62
2023/09/07 10:06:17;;;;;;;6.38;2.83;;;27.40;50.70;;;;;;5101160;28;20111;-62
2023/09/07 10:09:03;;;;;;;4.28;3.17;;;27.40;50.30;;;;;;5089492;28;20043;-62
2023/09/07 10:11:37;;;;;;;4.60;3.00;;;27.50;50.10;;;;;;5082095;28;20477;-62
2023/09/07 10:14:04;;;;;;;5.43;3.15;;;27.60;50.20;;;;;;5085713;28;20031;-63
2023/09/07 10:16:43;;;;;;;8.52;3.00;;;27.60;50.40;;;;;;5079717;28;20032;-62
2023/09/07 10:19:26;;;;;;;6.63;3.00;;;27.70;49.20;;;;;;5078743;28;20464;-61
2023/09/07 10:21:54;;;;;;;4.03;3.10;;;27.80;49.60;;;;;;5086738;28;20063;-63
2023/09/07 10:24:39;;;;;;;4.80;3.05;;;27.80;49.90;;;;;;5082790;28;20036;-61
2023/09/07 10:27:06;;;;;;;5.57;2.97;;;27.90;49.70;;;;;;5076211;28;20027;-62
2023/09/07 10:29:46;;;;;;;3.25;2.95;;;28.00;49.70;;;;;;5083290;28;20040;-63
2023/09/07 10:32:14;;;;;;;3.92;2.83;;;28.00;49.20;;;;;;5081250;28;20032;-61
2023/09/07 10:34:43;;;;;;;6.72;3.70;;;28.10;49.80;;;;;;5071829;28;20019;-62
2023/09/07 10:37:14;;;;;;;6.72;2.90;;;28.20;49.70;;;;;;5082159;28;20028;-62
2023/09/07 10:39:44;;;;;;;6.00;3.15;;;28.30;49.30;;;;;;5066530;28;20031;-62
2023/09/07 10:42:23;;;;;;;5.07;2.97;;;28.30;48.90;;;;;;5085673;28;20027;-62
2023/09/07 10:44:49;;;;;;;3.70;2.80;;;28.40;49.20;;;;;;4983955;28;20568;-62
2023/09/07 10:47:15;;;;;;;4.05;2.95;;;28.50;49.20;;;;;;5084380;28;20051;-62
2023/09/07 10:49:40;;;;;;;5.60;3.10;;;28.50;49.20;;;;;;5081546;28;20032;-63
2023/09/07 10:52:06;;;;;;;3.80;2.97;;;28.60;48.40;;;;;;5089492;28;20036;-62
2023/09/07 10:54:32;;;;;;;4.57;3.08;;;28.60;48.30;;;;;;5084783;28;20028;-62
2023/09/07 10:57:13;;;;;;;4.07;2.75;;;28.70;48.40;;;;;;5084996;28;20077;-63
2023/09/07 10:59:44;;;;;;;3.92;3.08;;;28.70;47.50;;;;;;5083541;28;20075;-64
2023/09/07 11:02:09;;;;;;;5.47;3.03;;;28.80;48.20;;;;;;5080873;28;20076;-62
2023/09/07 11:04:35;;;;;;;7.38;2.85;;;28.80;47.40;;;;;;5085608;28;20024;-62
2023/09/07 11:07:02;;;;;;;4.47;3.08;;;28.90;47.50;;;;;;5083857;28;20047;-64
2023/09/07 11:09:29;;;;;;;7.00;3.00;;;28.90;46.80;;;;;;5080566;28;20035;-61
2023/09/07 11:11:55;;;;;;;4.53;2.78;;;29.00;47.00;;;;;;5085799;28;20028;-62
2023/09/07 11:14:22;;;;;;;4.57;3.40;;;29.10;47.30;;;;;;5086154;28;20404;-62
2023/09/07 11:16:48;;;;;;;4.82;3.17;;;29.10;47.50;;;;;;5082180;28;20019;-63
2023/09/07 11:19:15;;;;;;;3.22;2.92;;;29.20;47.40;;;;;;5088919;28;20389;-63
2023/09/07 11:21:40;;;;;;;5.60;2.85;;;29.20;46.50;;;;;;5081764;28;20569;-62
2023/09/07 11:24:08;;;;;;;2.90;2.60;;;29.30;46.60;;;;;;5088570;28;20036;-63
2023/09/07 11:26:47;;;;;;;5.07;2.80;;;29.40;46.20;;;;;;5089365;28;20028;-63
2023/09/07 11:29:16;;;;;;;5.72;2.25;;;29.50;45.30;;;;;;5086013;28;20047;-63
2023/09/07 11:31:43;;;;;;;5.32;2.70;;;29.50;45.90;;;;;;5087977;28;20039;-62
2023/09/07 11:34:12;;;;;;;5.07;2.85;;;29.60;45.30;;;;;;5083789;28;20177;-63
2023/09/07 11:36:39;;;;;;;3.90;2.67;;;29.60;44.50;;;;;;5084223;28;20039;-62
2023/09/07 11:39:11;;;;;;;5.28;2.50;;;29.70;45.50;;;;;;5083375;28;20028;-63
2023/09/07 11:41:40;;;;;;;4.00;2.40;;;29.70;45.70;;;;;;5073185;28;20048;-63
2023/09/07 11:44:07;;;;;;;4.28;2.33;;;29.80;45.60;;;;;;5086435;28;20136;-63
2023/09/07 11:46:32;;;;;;;3.13;2.30;;;29.80;45.10;;;;;;5086839;28;20088;-62
2023/09/07 11:48:58;;;;;;;2.90;2.45;;;29.90;45.00;;;;;;5072391;28;20410;-63
2023/09/07 11:51:24;;;;;;;3.53;2.67;;;29.90;44.90;;;;;;5084022;28;20040;-62
2023/09/07 11:53:50;;;;;;;3.15;2.60;;;30.00;44.70;;;;;;5084773;28;20044;-61
2023/09/07 11:56:15;;;;;;;2.55;2.30;;;30.10;44.50;;;;;;5093654;28;20062;-62
2023/09/07 11:58:42;;;;;;;11.38;2.83;;;30.20;44.80;;;;;;5079117;28;20443;-63
2023/09/07 12:01:08;;;;;;;3.05;2.35;;;30.20;44.80;;;;;;5077993;28;20020;-63
2023/09/07 12:03:34;;;;;;;3.80;2.80;;;30.30;44.60;;;;;;5087350;28;20028;-62
2023/09/07 12:06:00;;;;;;;4.25;2.85;;;30.30;43.60;;;;;;5088887;28;20040;-63
2023/09/07 12:08:26;;;;;;;4.10;2.92;;;30.40;45.00;;;;;;5090893;28;20104;-63
2023/09/07 12:10:51;;;;;;;4.57;2.67;;;30.50;44.30;;;;;;5088049;28;20032;-63
2023/09/07 12:13:17;;;;;;;3.50;2.72;;;30.60;44.30;;;;;;5090018;28;20028;-64
2023/09/07 12:15:43;;;;;;;4.70;3.05;;;30.70;43.60;;;;;;5082883;28;20082;-63
2023/09/07 12:18:09;;;;;;;3.08;2.45;;;30.70;43.60;;;;;;5086054;28;20032;-64
2023/09/07 12:20:34;;;;;;;2.92;2.20;;;30.80;43.00;;;;;;5073812;28;20384;-62
2023/09/07 12:23:02;;;;;;;3.75;2.50;;;30.90;42.80;;;;;;5092599;28;20054;-62
2023/09/07 12:25:28;;;;;;;3.45;2.38;;;31.00;42.90;;;;;;5089455;28;20016;-62
2023/09/07 12:27:53;;;;;;;10.40;3.33;;;31.00;42.70;;;;;;5086280;28;20048;-63
2023/09/07 12:30:20;;;;;;;3.28;2.30;;;31.00;43.00;;;;;;5092046;28;20024;-62
2023/09/07 12:32:46;;;;;;;2.50;2.30;;;31.10;43.20;;;;;;5089260;28;20016;-62
2023/09/07 12:35:12;;;;;;;5.32;2.63;;;31.20;43.10;;;;;;5082646;28;20031;-62
2023/09/07 12:37:38;;;;;;;3.00;2.70;;;31.20;42.80;;;;;;5089660;28;20023;-63
2023/09/07 12:40:12;;;;;;;6.20;2.50;;;31.20;42.70;;;;;;5085329;28;20408;-61
2023/09/07 12:42:43;;;;;;;3.47;2.50;;;31.30;42.40;;;;;;5084155;28;20024;-63
2023/09/07 12:45:10;;;;;;;3.00;2.53;;;31.30;42.40;;;;;;5032679;28;20063;-63